createdAt,value
2022-10-05T00:01:30.279Z,100.00
2022-10-05T00:04:14.622Z,100.00
2022-10-05T00:06:54.984Z,100.00
2022-10-05T00:09:21.759Z,100.00
2022-10-05T00:11:48.635Z,100.00
2022-10-05T00:14:20.726Z,100.00
2022-10-05T00:16:47.373Z,100.00
2022-10-05T00:19:22.843Z,100.00
2022-10-05T00:21:48.742Z,100.00
2022-10-05T00:24:18.668Z,100.00
2022-10-05T00:26:44.768Z,100.00
2022-10-05T00:29:21.262Z,100.00
2022-10-05T00:31:47.830Z,100.00
2022-10-05T00:34:14.333Z,100.00
2022-10-05T00:36:40.933Z,100.00
2022-10-05T00:39:07.035Z,100.00
2022-10-05T00:41:54.611Z,100.00
2022-10-05T00:44:48.178Z,100.00
2022-10-05T00:47:34.271Z,100.00
2022-10-05T00:50:05.687Z,100.00
2022-10-05T00:52:43.568Z,100.00
2022-10-05T00:56:03.080Z,100.00
2022-10-05T00:58:49.973Z,100.00
2022-10-05T01:01:53.785Z,100.00
2022-10-05T01:04:40.468Z,100.00
2022-10-05T01:07:06.276Z,100.00
2022-10-05T01:09:40.970Z,100.00
2022-10-05T01:12:13.484Z,100.00
2022-10-05T01:15:05.488Z,100.00
2022-10-05T01:17:37.110Z,100.00
2022-10-05T01:20:20.238Z,100.00
2022-10-05T01:23:13.909Z,100.00
2022-10-05T01:26:17.021Z,100.00
2022-10-05T01:29:02.067Z,100.00
2022-10-05T01:31:45.003Z,100.00
2022-10-05T01:34:26.405Z,100.00
2022-10-05T01:37:04.316Z,100.00
2022-10-05T01:39:32.629Z,100.00
2022-10-05T01:42:04.992Z,100.00
2022-10-05T01:44:51.683Z,100.00
2022-10-05T01:47:34.069Z,100.00
2022-10-05T01:50:03.909Z,100.00
2022-10-05T01:52:44.058Z,100.00
2022-10-05T01:55:12.615Z,100.00
2022-10-05T01:58:09.518Z,100.00
2022-10-05T02:00:48.773Z,100.00
2022-10-05T02:03:30.127Z,100.00
2022-10-05T02:06:01.034Z,100.00
2022-10-05T02:08:34.239Z,100.00
2022-10-05T02:11:07.382Z,100.00
2022-10-05T02:13:43.272Z,100.00
2022-10-05T02:16:23.738Z,100.00
2022-10-05T02:19:02.818Z,100.00
2022-10-05T02:21:32.921Z,100.00
2022-10-05T02:24:04.371Z,100.00
2022-10-05T02:26:31.372Z,100.00
2022-10-05T02:29:05.856Z,100.00
2022-10-05T02:31:45.104Z,100.00
2022-10-05T02:34:36.359Z,100.00
2022-10-05T02:37:26.602Z,100.00
2022-10-05T02:40:13.963Z,100.00
2022-10-05T02:42:51.571Z,100.00
2022-10-05T02:45:31.320Z,100.00
2022-10-05T02:47:57.049Z,100.00
2022-10-05T02:50:33.172Z,100.00
2022-10-05T02:53:22.951Z,100.00
2022-10-05T02:56:28.501Z,100.00
2022-10-05T02:59:10.405Z,100.00
2022-10-05T03:01:54.537Z,100.00
2022-10-05T03:04:34.901Z,100.00
2022-10-05T03:07:13.509Z,100.00
2022-10-05T03:09:47.353Z,100.00
2022-10-05T03:12:50.796Z,100.00
2022-10-05T03:15:25.351Z,100.00
2022-10-05T03:18:21.154Z,100.00
2022-10-05T03:20:56.390Z,100.00
2022-10-05T03:24:07.264Z,100.00
2022-10-05T03:26:44.769Z,100.00
2022-10-05T03:29:28.344Z,100.00
2022-10-05T03:32:06.869Z,100.00
2022-10-05T03:34:44.754Z,100.00
2022-10-05T03:37:30.708Z,100.00
2022-10-05T03:40:09.267Z,100.00
2022-10-05T03:42:59.290Z,100.00
2022-10-05T03:45:30.848Z,100.00
2022-10-05T03:48:11.074Z,100.00
2022-10-05T03:50:42.962Z,100.00
2022-10-05T03:53:18.874Z,100.00
2022-10-05T03:55:51.216Z,100.00
2022-10-05T03:58:26.592Z,100.00
2022-10-05T04:01:03.707Z,100.00
2022-10-05T04:03:38.829Z,100.00
2022-10-05T04:06:13.089Z,100.00
2022-10-05T04:08:48.172Z,100.00
2022-10-05T04:11:26.768Z,100.00
2022-10-05T04:14:09.513Z,100.00
2022-10-05T04:16:41.418Z,100.00
2022-10-05T04:19:21.330Z,100.00
2022-10-05T04:22:05.551Z,100.00
2022-10-05T04:25:00.546Z,100.00
2022-10-05T04:27:35.258Z,100.00
2022-10-05T04:30:11.699Z,100.00
2022-10-05T04:32:47.278Z,100.00
2022-10-05T04:35:12.949Z,100.00
2022-10-05T04:37:56.937Z,100.00
2022-10-05T04:40:38.301Z,100.00
2022-10-05T04:43:31.897Z,100.00
2022-10-05T04:46:25.560Z,100.00
2022-10-05T04:49:12.453Z,100.00
2022-10-05T04:51:56.323Z,100.00
2022-10-05T04:54:41.653Z,100.00
2022-10-05T04:57:16.979Z,100.00
2022-10-05T05:00:19.818Z,100.00
2022-10-05T05:02:54.636Z,100.00
2022-10-05T05:05:20.348Z,100.00
2022-10-05T05:08:25.858Z,100.00
2022-10-05T05:11:06.846Z,100.00
2022-10-05T05:13:40.361Z,100.00
2022-10-05T05:16:32.424Z,100.00
2022-10-05T05:19:30.297Z,100.00
2022-10-05T05:22:22.070Z,100.00
2022-10-05T05:25:16.611Z,100.00
2022-10-05T05:27:48.718Z,100.00
2022-10-05T05:30:40.663Z,100.00
2022-10-05T05:33:18.513Z,100.00
2022-10-05T05:36:02.379Z,100.00
2022-10-05T05:39:10.588Z,100.00
2022-10-05T05:41:53.672Z,100.00
2022-10-05T05:44:22.069Z,100.00
2022-10-05T05:47:04.810Z,100.00
2022-10-05T05:49:47.188Z,100.00
2022-10-05T05:52:16.651Z,100.00
2022-10-05T05:54:54.054Z,100.00
2022-10-05T05:57:27.443Z,100.00
2022-10-05T06:00:04.969Z,100.00
2022-10-05T06:02:42.271Z,100.00
2022-10-05T06:05:27.150Z,100.00
2022-10-05T06:07:54.883Z,100.00
2022-10-05T06:10:24.118Z,100.00
2022-10-05T06:12:52.997Z,100.00
2022-10-05T06:15:31.883Z,100.00
2022-10-05T06:18:04.042Z,100.00
2022-10-05T06:20:37.536Z,100.00
2022-10-05T06:23:14.924Z,100.00
2022-10-05T06:25:49.614Z,100.00
2022-10-05T06:28:15.551Z,100.00
2022-10-05T06:30:49.791Z,100.00
2022-10-05T06:33:29.915Z,100.00
2022-10-05T06:36:17.068Z,100.00
2022-10-05T06:38:48.418Z,100.00
2022-10-05T06:41:37.055Z,100.00
2022-10-05T06:44:21.281Z,100.00
2022-10-05T06:47:10.013Z,100.00
2022-10-05T06:49:47.607Z,100.00
2022-10-05T06:52:35.072Z,100.00
2022-10-05T06:55:13.246Z,100.00
2022-10-05T06:57:48.610Z,100.00
2022-10-05T07:00:23.985Z,100.00
2022-10-05T07:03:00.737Z,100.00
2022-10-05T07:05:52.737Z,100.00
2022-10-05T07:08:37.372Z,100.00
2022-10-05T07:11:14.722Z,100.00
2022-10-05T07:14:03.961Z,100.00
2022-10-05T07:17:11.437Z,100.00
2022-10-05T07:20:16.166Z,100.00
2022-10-05T07:23:12.885Z,100.00
2022-10-05T07:26:11.016Z,100.00
2022-10-05T07:28:45.689Z,100.00
2022-10-05T07:31:37.408Z,100.00
2022-10-05T07:34:14.642Z,100.00
2022-10-05T07:37:20.677Z,100.00
2022-10-05T07:40:08.488Z,100.00
2022-10-05T07:42:48.987Z,100.00
2022-10-05T07:45:31.294Z,100.00
2022-10-05T07:48:06.087Z,100.00
2022-10-05T07:50:46.968Z,100.00
2022-10-05T07:53:24.144Z,100.00
2022-10-05T07:55:53.587Z,100.00
2022-10-05T07:58:33.642Z,100.00
2022-10-05T08:01:10.671Z,100.00
2022-10-05T08:04:08.922Z,100.00
2022-10-05T08:06:55.622Z,100.00
2022-10-05T08:09:49.288Z,100.00
2022-10-05T08:12:21.062Z,100.00
2022-10-05T08:15:19.866Z,100.00
2022-10-05T08:17:48.573Z,100.00
2022-10-05T08:20:34.296Z,100.00
2022-10-05T08:23:20.274Z,100.00
2022-10-05T08:26:01.307Z,100.00
2022-10-05T08:28:38.466Z,100.00
2022-10-05T08:31:07.143Z,100.00
2022-10-05T08:33:49.997Z,100.00
2022-10-05T08:36:23.378Z,100.00
2022-10-05T08:38:54.568Z,100.00
2022-10-05T08:41:38.624Z,100.00
2022-10-05T08:44:04.366Z,100.00
2022-10-05T08:46:45.226Z,100.00
2022-10-05T08:49:48.017Z,100.00
2022-10-05T08:52:19.799Z,100.00
2022-10-05T08:55:09.648Z,100.00
2022-10-05T08:57:49.688Z,100.00
2022-10-05T09:00:23.261Z,100.00
2022-10-05T09:03:04.112Z,100.00
2022-10-05T09:05:42.081Z,100.00
2022-10-05T09:08:25.826Z,100.00
2022-10-05T09:11:03.923Z,100.00
2022-10-05T09:13:39.948Z,100.00
2022-10-05T09:16:16.227Z,100.00
2022-10-05T09:18:59.032Z,100.00
2022-10-05T09:21:27.494Z,100.00
2022-10-05T09:24:05.236Z,100.00
2022-10-05T09:26:39.994Z,100.00
2022-10-05T09:29:35.940Z,100.00
2022-10-05T09:32:19.711Z,100.00
2022-10-05T09:35:03.170Z,100.00
2022-10-05T09:37:51.369Z,100.00
2022-10-05T09:40:26.138Z,100.00
2022-10-05T09:43:29.379Z,100.00
2022-10-05T09:46:23.627Z,100.00
2022-10-05T09:48:55.885Z,100.00
2022-10-05T09:51:40.336Z,100.00
2022-10-05T09:54:32.246Z,100.00
2022-10-05T09:57:11.203Z,100.00
2022-10-05T10:00:14.428Z,100.00
2022-10-05T10:02:55.531Z,100.00
2022-10-05T10:05:33.381Z,100.00
2022-10-05T10:08:19.501Z,100.00
2022-10-05T10:11:22.913Z,100.00
2022-10-05T10:14:16.615Z,100.00
2022-10-05T10:17:15.536Z,100.00
2022-10-05T10:19:44.300Z,100.00
2022-10-05T10:22:49.397Z,100.00
2022-10-05T10:25:54.353Z,100.00
2022-10-05T10:28:52.555Z,100.00
2022-10-05T10:31:42.432Z,100.00
2022-10-05T10:34:26.887Z,100.00
2022-10-05T10:37:30.510Z,100.00
2022-10-05T10:40:29.360Z,100.00
2022-10-05T10:42:55.587Z,100.00
2022-10-05T10:45:48.608Z,100.00
2022-10-05T10:48:29.451Z,100.00
2022-10-05T10:51:13.838Z,100.00
2022-10-05T10:54:11.717Z,100.00
2022-10-05T10:57:21.782Z,100.00
2022-10-05T11:00:05.362Z,100.00
2022-10-05T11:02:32.102Z,99.34
2022-10-05T11:05:22.216Z,99.12
2022-10-05T11:08:31.419Z,97.06
2022-10-05T11:11:21.821Z,98.19
2022-10-05T11:14:25.390Z,97.56
2022-10-05T11:17:17.205Z,90.78
2022-10-05T11:20:06.170Z,91.51
2022-10-05T11:22:55.805Z,95.85
2022-10-05T11:25:32.711Z,97.95
2022-10-05T11:28:17.339Z,99.92
2022-10-05T11:31:03.625Z,90.15
2022-10-05T11:33:51.515Z,82.65
2022-10-05T11:36:51.142Z,77.18
2022-10-05T11:39:42.218Z,80.83
2022-10-05T11:42:45.504Z,87.25
2022-10-05T11:45:37.430Z,91.93
2022-10-05T11:48:15.024Z,89.62
2022-10-05T11:51:28.979Z,68.70
2022-10-05T11:54:00.857Z,64.46
2022-10-05T11:56:36.683Z,58.42
2022-10-05T11:59:14.520Z,53.08
2022-10-05T12:01:48.587Z,58.48
2022-10-05T12:04:28.498Z,51.34
2022-10-05T12:07:07.297Z,54.02
2022-10-05T12:10:06.096Z,51.28
2022-10-05T12:12:53.010Z,50.13
2022-10-05T12:15:36.796Z,50.50
2022-10-05T12:18:12.756Z,49.95
2022-10-05T12:20:48.003Z,46.42
2022-10-05T12:23:54.591Z,40.90
2022-10-05T12:26:34.622Z,37.30
2022-10-05T12:29:13.134Z,38.56
2022-10-05T12:31:58.124Z,38.71
2022-10-05T12:34:28.928Z,37.92
2022-10-05T12:37:04.714Z,35.36
2022-10-05T12:39:49.316Z,33.80
2022-10-05T12:42:40.829Z,35.71
2022-10-05T12:45:17.657Z,38.45
2022-10-05T12:47:59.805Z,41.88
2022-10-05T12:51:04.116Z,40.97
2022-10-05T12:53:47.752Z,38.09
2022-10-05T12:56:36.107Z,37.40
2022-10-05T12:59:11.039Z,36.07
2022-10-05T13:01:49.343Z,35.61
2022-10-05T13:04:35.069Z,39.66
2022-10-05T13:07:15.834Z,36.62
2022-10-05T13:10:00.188Z,36.86
2022-10-05T13:12:47.258Z,42.00
2022-10-05T13:15:26.569Z,42.28
2022-10-05T13:18:21.470Z,43.38
2022-10-05T13:21:03.859Z,43.87
2022-10-05T13:23:35.460Z,44.16
2022-10-05T13:26:16.921Z,42.87
2022-10-05T13:28:59.782Z,44.14
2022-10-05T13:31:37.848Z,43.24
2022-10-05T13:34:29.657Z,45.64
2022-10-05T13:37:27.013Z,46.31
2022-10-05T13:40:01.459Z,48.41
2022-10-05T13:42:38.941Z,48.48
2022-10-05T13:45:10.675Z,48.08
2022-10-05T13:47:53.444Z,48.67
2022-10-05T13:50:44.181Z,52.75
2022-10-05T13:53:36.337Z,55.72
2022-10-05T13:56:25.193Z,55.70
2022-10-05T13:59:14.341Z,56.83
2022-10-05T14:01:48.379Z,60.31
2022-10-05T14:04:20.333Z,62.84
2022-10-05T14:06:47.782Z,66.18
2022-10-05T14:09:19.620Z,66.07
2022-10-05T14:11:50.913Z,67.79
2022-10-05T14:14:29.682Z,69.33
2022-10-05T14:16:58.238Z,68.79
2022-10-05T14:19:31.051Z,70.24
2022-10-05T14:22:23.794Z,68.96
2022-10-05T14:25:13.203Z,66.58
2022-10-05T14:28:02.357Z,64.83
2022-10-05T14:30:31.439Z,65.25
2022-10-05T14:33:13.257Z,66.74
2022-10-05T14:35:48.507Z,66.89
2022-10-05T14:38:21.900Z,68.09
2022-10-05T14:41:20.232Z,69.34
2022-10-05T14:43:51.815Z,71.66
2022-10-05T14:46:21.833Z,72.74
2022-10-05T14:49:10.408Z,73.34
2022-10-05T14:51:36.895Z,74.23
2022-10-05T14:54:20.627Z,75.63
2022-10-05T14:57:01.716Z,76.25
2022-10-05T14:59:49.619Z,77.30
2022-10-05T15:02:44.327Z,79.99
2022-10-05T15:05:37.199Z,81.87
2022-10-05T15:08:11.461Z,82.81
2022-10-05T15:10:49.156Z,83.74
2022-10-05T15:13:18.468Z,85.62
2022-10-05T15:15:51.296Z,86.72
2022-10-05T15:18:48.438Z,87.69
2022-10-05T15:21:41.553Z,87.35
2022-10-05T15:24:25.620Z,88.04
2022-10-05T15:27:04.319Z,88.85
2022-10-05T15:29:54.128Z,88.95
2022-10-05T15:32:47.178Z,89.22
2022-10-05T15:35:31.367Z,88.50
2022-10-05T15:38:03.055Z,88.61
2022-10-05T15:40:58.028Z,88.28
2022-10-05T15:43:28.221Z,87.77
2022-10-05T15:46:16.174Z,88.98
2022-10-05T15:48:53.357Z,88.94
2022-10-05T15:51:30.681Z,89.33
2022-10-05T15:54:49.065Z,89.77
2022-10-05T15:57:34.745Z,91.14
2022-10-05T16:00:21.530Z,92.04
2022-10-05T16:03:02.153Z,93.33
2022-10-05T16:06:09.319Z,93.38
2022-10-05T16:08:53.761Z,94.35
2022-10-05T16:11:43.724Z,94.19
2022-10-05T16:14:09.581Z,94.88
2022-10-05T16:17:13.140Z,95.76
2022-10-05T16:19:46.478Z,96.45
2022-10-05T16:22:18.359Z,96.80
2022-10-05T16:24:57.362Z,96.82
2022-10-05T16:27:46.190Z,98.40
2022-10-05T16:30:17.471Z,99.15
2022-10-05T16:33:00.183Z,100.00
2022-10-05T16:35:43.645Z,100.00
2022-10-05T16:38:32.726Z,100.00
2022-10-05T16:41:04.987Z,100.00
2022-10-05T16:43:53.221Z,100.00
2022-10-05T16:46:37.547Z,100.00
2022-10-05T16:49:12.064Z,100.00
2022-10-05T16:51:47.815Z,100.00
2022-10-05T16:54:25.240Z,100.00
2022-10-05T16:57:12.655Z,100.00
2022-10-05T16:59:52.979Z,100.00
2022-10-05T17:02:30.611Z,100.00
2022-10-05T17:05:21.730Z,100.00
2022-10-05T17:07:58.481Z,100.00
2022-10-05T17:10:36.521Z,100.00
2022-10-05T17:13:22.474Z,100.00
2022-10-05T17:16:12.783Z,100.00
2022-10-05T17:19:06.659Z,100.00
2022-10-05T17:21:49.344Z,100.00
2022-10-05T17:24:50.907Z,100.00
2022-10-05T17:27:28.717Z,100.00
2022-10-05T17:30:19.698Z,100.00
2022-10-05T17:33:17.696Z,100.00
2022-10-05T17:36:11.726Z,100.00
2022-10-05T17:38:49.995Z,100.00
2022-10-05T17:41:22.902Z,100.00
2022-10-05T17:44:18.458Z,100.00
2022-10-05T17:46:47.101Z,100.00
2022-10-05T17:49:25.131Z,100.00
2022-10-05T17:52:09.105Z,100.00
2022-10-05T17:55:14.083Z,100.00
2022-10-05T17:57:41.220Z,100.00
2022-10-05T18:01:00.057Z,100.00
2022-10-05T18:03:40.617Z,100.00
2022-10-05T18:06:24.980Z,100.00
2022-10-05T18:09:22.038Z,100.00
2022-10-05T18:12:15.481Z,100.00
2022-10-05T18:14:56.590Z,100.00
2022-10-05T18:17:45.768Z,100.00
2022-10-05T18:20:14.381Z,100.00
2022-10-05T18:22:45.732Z,100.00
2022-10-05T18:25:42.784Z,100.00
2022-10-05T18:28:30.273Z,100.00
2022-10-05T18:31:02.485Z,100.00
2022-10-05T18:33:36.153Z,100.00
2022-10-05T18:36:20.449Z,100.00
2022-10-05T18:38:59.549Z,100.00
2022-10-05T18:41:53.582Z,100.00
2022-10-05T18:44:25.696Z,100.00
2022-10-05T18:47:30.151Z,100.00
2022-10-05T18:50:02.572Z,100.00
2022-10-05T18:52:44.437Z,100.00
2022-10-05T18:55:16.283Z,100.00
2022-10-05T18:57:57.354Z,100.00
2022-10-05T19:00:25.009Z,100.00
2022-10-05T19:03:00.119Z,100.00
2022-10-05T19:05:48.742Z,100.00
2022-10-05T19:08:17.983Z,100.00
2022-10-05T19:10:54.725Z,100.00
2022-10-05T19:13:23.366Z,100.00
2022-10-05T19:16:19.499Z,100.00
2022-10-05T19:18:45.422Z,100.00
2022-10-05T19:21:34.845Z,100.00
2022-10-05T19:24:09.555Z,100.00
2022-10-05T19:27:03.318Z,100.00
2022-10-05T19:29:42.511Z,100.00
2022-10-05T19:32:18.018Z,100.00
2022-10-05T19:35:08.868Z,100.00
2022-10-05T19:37:53.241Z,100.00
2022-10-05T19:40:34.031Z,100.00
2022-10-05T19:43:27.378Z,100.00
2022-10-05T19:46:19.939Z,100.00
2022-10-05T19:48:52.961Z,100.00
2022-10-05T19:51:24.920Z,100.00
2022-10-05T19:53:55.326Z,100.00
2022-10-05T19:56:32.276Z,100.00
2022-10-05T19:59:12.437Z,100.00
2022-10-05T20:01:39.638Z,100.00
2022-10-05T20:04:06.625Z,100.00
2022-10-05T20:06:33.253Z,100.00
2022-10-05T20:09:17.046Z,100.00
2022-10-05T20:11:51.086Z,100.00
2022-10-05T20:14:19.635Z,100.00
2022-10-05T20:17:04.282Z,100.00
2022-10-05T20:19:36.284Z,100.00
2022-10-05T20:22:25.787Z,100.00
2022-10-05T20:24:54.750Z,100.00
2022-10-05T20:27:42.226Z,100.00
2022-10-05T20:30:10.580Z,100.00
2022-10-05T20:32:36.496Z,100.00
2022-10-05T20:35:02.954Z,100.00
2022-10-05T20:37:29.130Z,100.00
2022-10-05T20:39:55.185Z,100.00
2022-10-05T20:42:23.153Z,100.00
2022-10-05T20:44:52.967Z,100.00
2022-10-05T20:47:22.560Z,100.00
2022-10-05T20:49:48.531Z,100.00
2022-10-05T20:52:15.188Z,100.00
2022-10-05T20:54:41.666Z,100.00
2022-10-05T20:57:08.651Z,100.00
2022-10-05T20:59:35.698Z,100.00
2022-10-05T21:02:03.030Z,100.00
2022-10-05T21:04:40.232Z,100.00
2022-10-05T21:07:06.514Z,100.00
2022-10-05T21:09:32.389Z,100.00
2022-10-05T21:11:58.249Z,100.00
2022-10-05T21:14:27.361Z,100.00
2022-10-05T21:16:53.269Z,100.00
2022-10-05T21:19:19.020Z,100.00
2022-10-05T21:21:45.961Z,100.00
2022-10-05T21:24:13.552Z,100.00
2022-10-05T21:26:40.899Z,100.00
2022-10-05T21:29:12.336Z,100.00
2022-10-05T21:31:39.227Z,100.00
2022-10-05T21:34:05.134Z,100.00
2022-10-05T21:36:31.841Z,100.00
2022-10-05T21:38:57.814Z,100.00
2022-10-05T21:41:23.749Z,100.00
2022-10-05T21:43:49.515Z,100.00
2022-10-05T21:46:19.608Z,100.00
2022-10-05T21:48:46.568Z,100.00
2022-10-05T21:51:15.930Z,100.00
2022-10-05T21:53:47.924Z,100.00
2022-10-05T21:56:16.853Z,100.00
2022-10-05T21:58:45.651Z,100.00
2022-10-05T22:01:11.972Z,100.00
2022-10-05T22:03:37.827Z,100.00
2022-10-05T22:06:04.373Z,100.00
2022-10-05T22:08:32.059Z,100.00
2022-10-05T22:10:59.545Z,100.00
2022-10-05T22:13:26.673Z,100.00
2022-10-05T22:15:55.492Z,100.00
2022-10-05T22:18:23.166Z,100.00
2022-10-05T22:20:50.453Z,100.00
2022-10-05T22:23:16.418Z,100.00
2022-10-05T22:25:42.536Z,100.00
2022-10-05T22:28:11.348Z,100.00
2022-10-05T22:30:38.329Z,100.00
2022-10-05T22:33:04.477Z,100.00
2022-10-05T22:35:34.834Z,100.00
2022-10-05T22:38:02.245Z,100.00
2022-10-05T22:40:28.009Z,100.00
2022-10-05T22:42:53.874Z,100.00
2022-10-05T22:45:19.724Z,100.00
2022-10-05T22:47:45.501Z,100.00
2022-10-05T22:50:11.315Z,100.00
2022-10-05T22:52:37.122Z,100.00
2022-10-05T22:55:03.180Z,100.00
2022-10-05T22:57:39.848Z,100.00
2022-10-05T23:00:07.039Z,100.00
2022-10-05T23:02:37.044Z,100.00
2022-10-05T23:05:03.781Z,100.00
2022-10-05T23:07:36.163Z,100.00
2022-10-05T23:10:03.507Z,100.00
2022-10-05T23:12:29.222Z,100.00
2022-10-05T23:14:54.943Z,100.00
2022-10-05T23:17:21.020Z,100.00
2022-10-05T23:19:46.774Z,100.00
2022-10-05T23:22:12.524Z,100.00
2022-10-05T23:24:38.297Z,100.00
2022-10-05T23:27:04.038Z,100.00
2022-10-05T23:29:29.773Z,100.00
2022-10-05T23:31:55.555Z,100.00
2022-10-05T23:34:21.320Z,100.00
2022-10-05T23:36:47.107Z,100.00
2022-10-05T23:39:16.065Z,100.00
2022-10-05T23:41:43.955Z,100.00
2022-10-05T23:44:10.194Z,100.00
2022-10-05T23:46:35.921Z,100.00
2022-10-05T23:49:01.959Z,100.00
2022-10-05T23:51:28.179Z,100.00
2022-10-05T23:53:53.919Z,100.00
2022-10-05T23:56:19.731Z,100.00
2022-10-05T23:58:45.589Z,100.00
